Stations météo

réclame
Mon MeteoGroup
Tarvisio, Italie (16040): Température de l'air & dewpoint: 18.10.2018 07:00:00 - 24.10.2018 07:00:00 (CEST)Tarvisio, Italie (16040): Vitesse du vent: 18.10.2018 07:00:00 - 24.10.2018 07:00:00 (CEST)Tarvisio, Italie (16040): Direction du vent: 18.10.2018 07:00:00 - 24.10.2018 07:00:00 (CEST)Tarvisio, Italie (16040): visibility: 18.10.2018 07:00:00 - 24.10.2018 07:00:00 (CEST)
Date & Time tt [°C] td [°C] ff [km/h] ff [knt] dd vv [km]
24.10.2018 07:00:00 - - - - - -
24.10.2018 06:00:00 - - - - - -
24.10.2018 05:00:00 - - - - - -
24.10.2018 04:00:00 - - - - - -
24.10.2018 03:00:00 - - - - - -
24.10.2018 02:00:00 - - - - - -
24.10.2018 01:00:00 - - - - - -
24.10.2018 00:00:00 - - - - - -
23.10.2018 23:00:00 - - - - - -
23.10.2018 22:00:00 - - - - - -
23.10.2018 21:00:00 - - - - - -
23.10.2018 20:00:00 10,2 5,2 5 3 W 15
23.10.2018 19:00:00 10,0 5,0 4 2 WSW 10
23.10.2018 18:00:00 12,0 6,0 0 0 N 10
23.10.2018 17:00:00 13,4 5,1 2 1 NNW 15
23.10.2018 16:00:00 15,0 4,0 4 2 SE 10
23.10.2018 15:00:00 15,0 5,0 4 2 SSE 10
23.10.2018 14:00:00 13,6 4,8 4 2 SSE 15
23.10.2018 13:00:00 12,0 4,0 8 4 N 10
23.10.2018 12:00:00 10,0 4,0 8 4 S 10
23.10.2018 11:00:00 7,4 4,5 5 3 S 15
23.10.2018 10:00:00 3,0 1,0 2 1 ESE 10
23.10.2018 09:00:00 1,0 0,0 0 0 N 10
23.10.2018 08:00:00 0,8 0,1 0 0 N 15
23.10.2018 07:00:00 - - - - - -
23.10.2018 06:00:00 - - - - - -
23.10.2018 05:00:00 - - - - - -
23.10.2018 04:00:00 - - - - - -
23.10.2018 03:00:00 - - - - - -
23.10.2018 02:00:00 - - - - - -
23.10.2018 01:00:00 - - - - - -
23.10.2018 00:00:00 - - - - - -
22.10.2018 23:00:00 - - - - - -
22.10.2018 22:00:00 - - - - - -
22.10.2018 21:00:00 - - - - - -
22.10.2018 20:00:00 7,2 4,9 2 1 E 15
22.10.2018 19:00:00 8,0 5,0 2 1 NE 10
22.10.2018 18:00:00 9,0 4,0 2 1 WSW 10
22.10.2018 17:00:00 12,2 3,7 4 2 ENE 15
22.10.2018 16:00:00 13,0 4,0 5 3 ENE 10
22.10.2018 15:00:00 13,0 4,0 13 7 E 10
22.10.2018 14:00:00 13,0 3,7 9 5 ESE 15
22.10.2018 13:00:00 13,0 4,0 9 5 E 10
22.10.2018 12:00:00 8,0 2,0 5 3 S 10
22.10.2018 11:00:00 5,8 0,8 2 1 SSE 15
22.10.2018 10:00:00 4,0 1,0 0 0 N 10
22.10.2018 09:00:00 2,0 0,0 0 0 N 10
22.10.2018 08:00:00 1,4 -0,2 0 0 N 15
22.10.2018 07:00:00 - - - - - -
22.10.2018 06:00:00 - - - - - -
22.10.2018 05:00:00 - - - - - -
22.10.2018 04:00:00 - - - - - -
22.10.2018 03:00:00 - - - - - -
22.10.2018 02:00:00 - - - - - -
22.10.2018 01:00:00 - - - - - -
22.10.2018 00:00:00 - - - - - -
21.10.2018 23:00:00 - - - - - -
21.10.2018 22:00:00 - - - - - -
21.10.2018 21:00:00 - - - - - -
21.10.2018 20:00:00 6,4 -1,7 2 1 ESE 15
21.10.2018 19:00:00 7,0 0,0 4 2 ENE 10
21.10.2018 18:00:00 9,0 0,0 4 2 NE 10
21.10.2018 17:00:00 10,2 0,8 5 3 E 10
21.10.2018 16:00:00 11,0 1,0 5 3 ESE 10
21.10.2018 15:00:00 10,0 2,0 13 7 E 10
21.10.2018 14:00:00 9,0 2,8 9 5 ENE 10
21.10.2018 13:00:00 8,0 4,0 11 6 E 10
21.10.2018 12:00:00 8,0 5,0 8 4 SE 10
21.10.2018 11:00:00 9,0 6,3 2 1 ESE 10
21.10.2018 10:00:00 7,0 5,0 2 1 SSE 10
21.10.2018 09:00:00 6,0 4,0 0 0 N 8
21.10.2018 08:00:00 5,4 3,9 2 1 ENE 8
21.10.2018 07:00:00 - - - - - -
21.10.2018 06:00:00 - - - - - -
21.10.2018 05:00:00 - - - - - -
21.10.2018 04:00:00 - - - - - -
21.10.2018 03:00:00 - - - - - -
21.10.2018 02:00:00 - - - - - -
21.10.2018 01:00:00 - - - - - -
21.10.2018 00:00:00 - - - - - -
20.10.2018 23:00:00 - - - - - -
20.10.2018 22:00:00 - - - - - -
20.10.2018 21:00:00 - - - - - -
20.10.2018 20:00:00 10,0 7,9 0 0 N 15
20.10.2018 19:00:00 11,0 8,0 0 0 N 10
20.10.2018 18:00:00 12,0 8,0 2 1 NE 10
20.10.2018 17:00:00 16,0 5,6 8 4 SE 15
20.10.2018 16:00:00 17,0 6,0 4 2 SE 10
20.10.2018 15:00:00 18,0 6,0 9 5 ESE 10
20.10.2018 14:00:00 17,0 7,6 11 6 E 15
20.10.2018 13:00:00 16,0 9,0 8 4 WNW 10
20.10.2018 12:00:00 13,0 9,0 8 4 SSE 10
20.10.2018 11:00:00 12,4 9,0 8 4 S 15
20.10.2018 10:00:00 9,0 8,0 2 1 SSE 10
20.10.2018 09:00:00 8,0 6,0 0 0 N 10
20.10.2018 08:00:00 7,0 5,8 0 0 N 15
20.10.2018 07:00:00 - - - - - -
20.10.2018 06:00:00 - - - - - -
20.10.2018 05:00:00 - - - - - -
20.10.2018 04:00:00 - - - - - -
20.10.2018 03:00:00 - - - - - -
20.10.2018 02:00:00 - - - - - -
20.10.2018 01:00:00 - - - - - -
20.10.2018 00:00:00 - - - - - -
19.10.2018 23:00:00 - - - - - -
19.10.2018 22:00:00 - - - - - -
19.10.2018 21:00:00 - - - - - -
19.10.2018 20:00:00 12,0 9,9 0 0 N 15
19.10.2018 19:00:00 12,0 10,0 2 1 NE 10
19.10.2018 18:00:00 14,0 9,0 8 4 E 10
19.10.2018 17:00:00 16,0 9,0 11 6 E 15
19.10.2018 16:00:00 17,0 10,0 8 4 ESE 10
19.10.2018 15:00:00 17,0 10,0 9 5 E 10
19.10.2018 14:00:00 17,2 10,6 9 5 ESE 15
19.10.2018 13:00:00 16,0 11,0 8 4 NNE 10
19.10.2018 12:00:00 15,0 10,0 8 4 SSE 10
19.10.2018 11:00:00 13,2 9,8 5 3 NE 10
19.10.2018 10:00:00 10,0 8,0 0 0 N 10
19.10.2018 09:00:00 9,0 7,0 0 0 N 8
19.10.2018 08:00:00 8,4 6,9 0 0 N 6
19.10.2018 07:00:00 - - - - - -
19.10.2018 06:00:00 - - - - - -
19.10.2018 05:00:00 - - - - - -
19.10.2018 04:00:00 - - - - - -
19.10.2018 03:00:00 - - - - - -
19.10.2018 02:00:00 - - - - - -
19.10.2018 01:00:00 - - - - - -
19.10.2018 00:00:00 - - - - - -
18.10.2018 23:00:00 - - - - - -
18.10.2018 22:00:00 - - - - - -
18.10.2018 21:00:00 - - - - - -
18.10.2018 20:00:00 11,8 10,2 0 0 N 10
18.10.2018 19:00:00 12,0 10,0 2 1 NE 10
18.10.2018 18:00:00 14,0 11,0 0 0 N 10
18.10.2018 17:00:00 16,0 11,0 4 2 SSE 15
18.10.2018 16:00:00 18,0 11,0 5 3 ESE 10
18.10.2018 15:00:00 18,0 11,0 5 3 E 10
18.10.2018 14:00:00 17,6 11,0 8 4 ESE 15
18.10.2018 13:00:00 16,0 10,0 9 5 SSE 10
18.10.2018 12:00:00 14,0 10,0 8 4 SSE 10
18.10.2018 11:00:00 12,0 9,0 4 2 SSE 10
18.10.2018 10:00:00 10,0 8,0 0 0 N 10
18.10.2018 09:00:00 9,0 7,0 0 0 N 4,0
18.10.2018 08:00:00 7,8 6,3 0 0 N 0,6
18.10.2018 07:00:00 - - - - - -

tt = Température de l'air
td = dewpoint
ff = Vitesse du vent
dd = Direction du vent
vv = visibility

stations d'obs. à proximité